Kalenakliyat 2 — TCBA7 — position and weather

sailwx.info

Track history (hours):
 
Tides and Currents Weather Stations Pressure Air Temp Water Temp Dewpoint Dewpoint Depression Visibility Wind Speed Wind Dir Waves Ship Positions

Kalenakliyat 2

Last reported at 2014-Oct-20 19:04 UTC. Time now 2014-Oct-23 03:16 UTC.
Position N 41°17' E 029°39'.

Length 72 m; draft 4.3 m.

Type: Cargo ship. MMSI: 271002023.

Date/timePositionNaut miles runAvg speedWind from/ knotsBaromVisibWave heightAir tempDewpointWater temp
2014-Oct-20 19:04N 41°17' E 029°39'5 8.9
2014-Oct-20 18:33N 41°17' E 029°33'9 9.1
2014-Oct-20 17:33N 41°16' E 029°21'23 6.9
2014-Oct-20 14:18N 40°60' E 029°00'5 6.7
2014-Oct-20 13:33N 40°56' E 029°04'7 6.9
2014-Oct-20 12:33N 40°53' E 029°12'0 0.1
2014-Oct-20 11:33N 40°53' E 029°12'0 0.1
2014-Oct-20 10:33N 40°53' E 029°12'0 0.0
2014-Oct-20 09:33N 40°53' E 029°12'0 0.0
2014-Oct-20 08:33N 40°53' E 029°12'0 0.0
2014-Oct-20 07:33N 40°53' E 029°12'0 0.0
2014-Oct-20 06:33N 40°53' E 029°12'0 0.0
2014-Oct-20 05:33N 40°53' E 029°12'0 0.1
2014-Oct-20 04:33N 40°53' E 029°12'0 0.0
2014-Oct-20 03:33N 40°53' E 029°12'0 0.0
2014-Oct-20 02:34N 40°53' E 029°12'0 0.0
2014-Oct-20 01:33N 40°53' E 029°12'0 0.0
2014-Oct-20 00:33N 40°53' E 029°12'0 0.0
2014-Oct-19 23:33N 40°53' E 029°12'4 3.6
2014-Oct-19 22:33N 40°50' E 029°08'9 8.6
2014-Oct-19 21:33N 40°48' E 028°57'9 8.4
2014-Oct-19 20:31N 40°47' E 028°46'  
2014-Oct-14 11:28N 37°40' E 026°35'19 0.5
2014-Oct-12 21:32N 37°27' E 026°53'19 9.5
2014-Oct-12 19:33N 37°40' E 026°35'10 9.4
2014-Oct-12 18:32N 37°49' E 026°30'151 8.8
2014-Oct-12 01:23N 40°19' E 026°36'  
Track history (hours):
 
Tides and Currents Weather Stations Pressure Air Temp Water Temp Dewpoint Dewpoint Depression Visibility Wind Speed Wind Dir Waves Ship Positions

Kalenakliyat 2

Last reported at 2014-Oct-20 19:04 UTC. Time now 2014-Oct-23 03:16 UTC.
Position N 41°17' E 029°39'.

Length 72 m; draft 4.3 m.

Type: Cargo ship. MMSI: 271002023.

Date/timePositionNaut miles runAvg speedWind from/ knotsBaromVisibWave heightAir tempDewpointWater temp
2014-Oct-20 19:04N 41°17' E 029°39'5 8.9
2014-Oct-20 18:33N 41°17' E 029°33'9 9.1
2014-Oct-20 17:33N 41°16' E 029°21'23 6.9
2014-Oct-20 14:18N 40°60' E 029°00'5 6.7
2014-Oct-20 13:33N 40°56' E 029°04'7 6.9
2014-Oct-20 12:33N 40°53' E 029°12'0 0.1
2014-Oct-20 11:33N 40°53' E 029°12'0 0.1
2014-Oct-20 10:33N 40°53' E 029°12'0 0.0
2014-Oct-20 09:33N 40°53' E 029°12'0 0.0
2014-Oct-20 08:33N 40°53' E 029°12'0 0.0
2014-Oct-20 07:33N 40°53' E 029°12'0 0.0
2014-Oct-20 06:33N 40°53' E 029°12'0 0.0
2014-Oct-20 05:33N 40°53' E 029°12'0 0.1
2014-Oct-20 04:33N 40°53' E 029°12'0 0.0
2014-Oct-20 03:33N 40°53' E 029°12'0 0.0
2014-Oct-20 02:34N 40°53' E 029°12'0 0.0
2014-Oct-20 01:33N 40°53' E 029°12'0 0.0
2014-Oct-20 00:33N 40°53' E 029°12'0 0.0
2014-Oct-19 23:33N 40°53' E 029°12'4 3.6
2014-Oct-19 22:33N 40°50' E 029°08'9 8.6
2014-Oct-19 21:33N 40°48' E 028°57'9 8.4
2014-Oct-19 20:31N 40°47' E 028°46'  
2014-Oct-14 11:28N 37°40' E 026°35'19 0.5
2014-Oct-12 21:32N 37°27' E 026°53'19 9.5
2014-Oct-12 19:33N 37°40' E 026°35'10 9.4
2014-Oct-12 18:32N 37°49' E 026°30'151 8.8
2014-Oct-12 01:23N 40°19' E 026°36'  

Dump ship's entire track history